logo
Search for airport 
image banner adimage banner adimage banner ad
image banner ad

EI0044 - Rathkeale Co Limerick

Located in , Ireland

ICAO - , IATA -

Data provided by Airmate  

General information

Coordinates: N52°30'60" W8°56'0"
Elevation is 111 feet MSL.
 
View others Airports in County Limerick

Operational data

Special qualification required
Current time UTC:
Current local time:
Weather at : EINN - Shannon ( 21 km )
METAR: EINN 162030Z 26006KT 9999 FEW018 16/12 Q1017 NOSIG
TAF: TAF EINN 161700Z 1618/1718 26008KT 9999 SCT020 BKN035 PROB40 TEMPO 1622/1703 -DZ BKN010 PROB30 TEMPO 1703/1706 BKN010 BECMG 1710/1712 18010KT
View NOTAMs / SUP AIP / TFR affecting this airport [VIEW]
Communications frequencies: [VIEW]

Runways:

Airport contact information

Address: Ireland

Satellite view of EI0044